createdAt,value
2023-02-06T00:03:16.899Z,8.23
2023-02-06T00:08:19.108Z,8.70
2023-02-06T00:13:21.773Z,9.45
2023-02-06T00:18:23.931Z,9.45
2023-02-06T00:23:26.108Z,7.95
2023-02-06T00:28:28.281Z,10.40
2023-02-06T00:33:32.409Z,7.85
2023-02-06T00:38:34.578Z,7.28
2023-02-06T00:43:37.482Z,8.68
2023-02-06T00:48:39.588Z,8.32
2023-02-06T00:53:41.788Z,6.93
2023-02-06T00:58:43.885Z,7.55
2023-02-06T01:03:46.615Z,7.50
2023-02-06T01:08:48.789Z,7.68
2023-02-06T01:13:51.981Z,10.00
2023-02-06T01:18:54.504Z,8.60
2023-02-06T01:23:57.926Z,8.45
2023-02-06T01:28:59.928Z,7.43
2023-02-06T01:34:02.678Z,5.97
2023-02-06T01:39:06.778Z,5.60
2023-02-06T01:44:13.366Z,7.18
2023-02-06T01:49:25.395Z,6.22
2023-02-06T01:54:27.695Z,7.78
2023-02-06T01:59:29.792Z,6.15
2023-02-06T02:04:33.701Z,6.90
2023-02-06T02:09:37.374Z,6.95
2023-02-06T02:14:41.579Z,5.30
2023-02-06T02:20:16.960Z,5.63
2023-02-06T02:25:53.730Z,6.45
2023-02-06T02:31:12.481Z,6.55
2023-02-06T02:36:17.457Z,5.93
2023-02-06T02:41:27.797Z,4.63
2023-02-06T02:46:37.016Z,4.80
2023-02-06T02:51:40.733Z,4.97
2023-02-06T02:56:42.869Z,5.53
2023-02-06T03:02:08.195Z,5.97
2023-02-06T03:07:28.558Z,5.03
2023-02-06T03:12:48.937Z,5.25
2023-02-06T03:18:08.265Z,6.78
2023-02-06T03:23:15.988Z,7.28
2023-02-06T03:28:24.622Z,5.30
2023-02-06T03:33:33.736Z,4.45
2023-02-06T03:38:35.789Z,4.72
2023-02-06T03:43:38.456Z,5.90
2023-02-06T03:48:44.561Z,5.25
2023-02-06T03:53:49.737Z,4.45
2023-02-06T03:58:51.868Z,5.35
2023-02-06T04:03:54.602Z,5.60
2023-02-06T04:08:56.704Z,5.63
2023-02-06T04:13:58.769Z,5.60
2023-02-06T04:19:00.865Z,4.45
2023-02-06T04:24:02.946Z,5.20
2023-02-06T04:29:05.011Z,4.05
2023-02-06T04:34:07.112Z,4.40
2023-02-06T04:39:09.233Z,4.68
2023-02-06T04:44:11.370Z,3.13
2023-02-06T04:49:13.776Z,2.65
2023-02-06T04:54:17.463Z,3.35
2023-02-06T04:59:19.549Z,3.20
2023-02-06T05:04:21.733Z,4.07
2023-02-06T05:09:23.838Z,4.13
2023-02-06T05:14:26.079Z,3.97
2023-02-06T05:19:28.124Z,3.33
2023-02-06T05:24:30.277Z,3.45
2023-02-06T05:29:32.283Z,2.83
2023-02-06T05:34:34.329Z,4.40
2023-02-06T05:39:36.389Z,4.30
2023-02-06T05:44:38.407Z,3.65
2023-02-06T05:49:40.433Z,3.30
2023-02-06T05:54:42.465Z,4.40
2023-02-06T05:59:44.519Z,3.05
2023-02-06T06:04:46.540Z,4.20
2023-02-06T06:09:49.362Z,2.72
2023-02-06T06:14:51.362Z,3.53
2023-02-06T06:19:53.432Z,5.05
2023-02-06T06:24:55.521Z,4.28
2023-02-06T06:29:57.620Z,3.40
2023-02-06T06:34:59.647Z,4.00
2023-02-06T06:40:01.673Z,3.50
2023-02-06T06:45:05.074Z,3.25
2023-02-06T06:50:07.865Z,4.35
2023-02-06T06:55:09.882Z,3.60
2023-02-06T07:00:13.452Z,4.18
2023-02-06T07:05:15.582Z,4.22
2023-02-06T07:10:17.797Z,3.88
2023-02-06T07:15:20.704Z,4.72
2023-02-06T07:20:22.834Z,4.28
2023-02-06T07:25:24.891Z,3.78
2023-02-06T07:30:27.064Z,5.63
2023-02-06T07:35:29.211Z,5.30
2023-02-06T07:40:43.241Z,5.47
2023-02-06T07:45:46.368Z,4.68
2023-02-06T07:50:48.471Z,5.90
2023-02-06T07:55:50.523Z,5.03
2023-02-06T08:00:52.830Z,3.85
2023-02-06T08:05:54.872Z,4.75
2023-02-06T08:10:57.042Z,4.43
2023-02-06T08:15:59.388Z,5.10
2023-02-06T08:21:06.801Z,5.07
2023-02-06T08:26:10.832Z,6.65
2023-02-06T08:31:28.586Z,8.52
2023-02-06T08:36:33.959Z,6.60
2023-02-06T08:41:38.731Z,6.03
2023-02-06T08:46:41.719Z,5.18
2023-02-06T08:51:44.632Z,6.22
2023-02-06T08:56:47.159Z,6.55
2023-02-06T09:01:52.383Z,5.90
2023-02-06T09:06:54.540Z,7.05
2023-02-06T09:12:02.247Z,5.10
2023-02-06T09:17:04.300Z,4.88
2023-02-06T09:22:07.244Z,7.05
2023-02-06T09:27:09.353Z,7.15
2023-02-06T09:32:11.403Z,5.28
2023-02-06T09:37:13.546Z,6.40
2023-02-06T09:42:23.811Z,6.82
2023-02-06T09:47:28.826Z,7.60
2023-02-06T09:52:51.057Z,6.80
2023-02-06T09:58:32.068Z,9.40
2023-02-06T10:04:14.048Z,7.70
2023-02-06T10:09:18.839Z,8.63
2023-02-06T10:14:32.924Z,7.80
2023-02-06T10:19:44.236Z,8.13
2023-02-06T10:25:30.336Z,6.93
2023-02-06T10:31:03.463Z,5.60
2023-02-06T10:36:27.392Z,8.32
2023-02-06T10:41:35.018Z,5.97
2023-02-06T10:46:48.470Z,6.30
2023-02-06T10:51:56.528Z,7.80
2023-02-06T10:56:59.971Z,9.55
2023-02-06T11:02:08.069Z,5.82
2023-02-06T11:07:17.820Z,7.45
2023-02-06T11:12:37.660Z,7.63
2023-02-06T11:17:39.737Z,5.72
2023-02-06T11:22:52.287Z,8.18
2023-02-06T11:27:56.993Z,8.63
2023-02-06T11:33:21.754Z,7.25
2023-02-06T11:38:25.709Z,7.25
2023-02-06T11:43:41.196Z,7.00
2023-02-06T11:49:06.185Z,8.05
2023-02-06T11:54:19.542Z,6.03
2023-02-06T11:59:27.246Z,7.50
2023-02-06T12:04:37.141Z,5.63
2023-02-06T12:09:39.258Z,8.23
2023-02-06T12:14:53.959Z,5.93
2023-02-06T12:20:13.882Z,8.25
2023-02-06T12:25:27.464Z,5.65
2023-02-06T12:30:32.281Z,7.55
2023-02-06T12:35:45.249Z,7.63
2023-02-06T12:41:18.575Z,6.70
2023-02-06T12:46:41.568Z,8.35
2023-02-06T12:52:28.122Z,21.17
2023-02-06T12:57:31.593Z,10.50
2023-02-06T13:03:01.556Z,5.80
2023-02-06T13:08:20.518Z,7.72
2023-02-06T13:13:36.732Z,6.90
2023-02-06T13:18:41.796Z,6.57
2023-02-06T13:24:02.139Z,10.73
2023-02-06T13:29:04.248Z,8.35
2023-02-06T13:34:08.301Z,6.80
2023-02-06T13:39:32.655Z,16.55
2023-02-06T13:44:38.600Z,7.25
2023-02-06T13:50:02.444Z,6.32
2023-02-06T13:55:26.771Z,11.63
2023-02-06T14:00:32.411Z,8.23
2023-02-06T14:05:51.723Z,15.45
2023-02-06T14:11:06.375Z,9.77
2023-02-06T14:16:32.559Z,7.38
2023-02-06T14:21:58.809Z,7.78
2023-02-06T14:27:15.969Z,7.13
2023-02-06T14:32:41.630Z,6.85
2023-02-06T14:37:58.502Z,7.97
2023-02-06T14:43:24.045Z,8.27
2023-02-06T14:48:40.570Z,7.32
2023-02-06T14:53:52.668Z,8.05
2023-02-06T14:58:55.185Z,7.25
2023-02-06T15:04:24.080Z,7.80
2023-02-06T15:09:34.239Z,8.48
2023-02-06T15:14:36.241Z,7.18
2023-02-06T15:19:38.301Z,6.97
2023-02-06T15:24:46.345Z,8.20
2023-02-06T15:29:50.541Z,6.72
2023-02-06T15:34:52.635Z,5.68
2023-02-06T15:39:55.489Z,6.20
2023-02-06T15:44:57.786Z,8.50
2023-02-06T15:50:00.960Z,8.45
2023-02-06T15:55:04.932Z,7.85
2023-02-06T16:00:23.493Z,7.47
2023-02-06T16:05:42.856Z,10.25
2023-02-06T16:10:50.072Z,9.88
2023-02-06T16:16:10.286Z,9.75
2023-02-06T16:21:17.894Z,10.88
2023-02-06T16:26:23.825Z,7.63
2023-02-06T16:31:28.443Z,10.35
2023-02-06T16:36:32.468Z,9.00
2023-02-06T16:41:41.336Z,10.50
2023-02-06T16:46:44.238Z,8.25
2023-02-06T16:51:47.753Z,15.30
2023-02-06T16:56:50.245Z,8.98
2023-02-06T17:01:52.333Z,10.63
2023-02-06T17:06:54.442Z,10.52
2023-02-06T17:11:57.096Z,11.98
2023-02-06T17:16:59.097Z,10.32
2023-02-06T17:22:01.177Z,9.38
2023-02-06T17:27:04.894Z,11.45
2023-02-06T17:32:08.194Z,10.13
2023-02-06T17:37:20.748Z,15.45
2023-02-06T17:42:24.368Z,14.00
2023-02-06T17:47:26.736Z,16.77
2023-02-06T17:52:28.727Z,16.63
2023-02-06T17:57:30.975Z,14.00
2023-02-06T18:02:33.324Z,15.68
2023-02-06T18:07:37.074Z,15.18
2023-02-06T18:12:39.570Z,10.80
2023-02-06T18:17:42.334Z,16.15
2023-02-06T18:22:44.468Z,12.57
2023-02-06T18:27:46.809Z,14.13
2023-02-06T18:32:48.988Z,11.18
2023-02-06T18:37:51.096Z,10.77
2023-02-06T18:42:54.665Z,10.25
2023-02-06T18:47:57.261Z,11.98
2023-02-06T18:52:59.335Z,12.48
2023-02-06T18:58:02.521Z,11.38
2023-02-06T19:03:04.855Z,11.00
2023-02-06T19:08:06.927Z,11.00
2023-02-06T19:13:09.001Z,12.05
2023-02-06T19:18:11.103Z,12.82
2023-02-06T19:23:13.114Z,22.60
2023-02-06T19:28:15.144Z,14.65
2023-02-06T19:33:17.246Z,10.23
2023-02-06T19:38:19.356Z,9.65
2023-02-06T19:43:21.374Z,10.68
2023-02-06T19:48:23.420Z,10.02
2023-02-06T19:53:25.405Z,10.52
2023-02-06T19:58:31.594Z,9.50
2023-02-06T20:03:33.744Z,14.23
2023-02-06T20:08:35.954Z,9.68
2023-02-06T20:13:38.766Z,13.32
2023-02-06T20:18:40.873Z,11.18
2023-02-06T20:23:42.986Z,10.07
2023-02-06T20:28:45.611Z,10.25
2023-02-06T20:33:48.625Z,12.70
2023-02-06T20:38:58.573Z,13.38
2023-02-06T20:44:01.511Z,12.82
2023-02-06T20:49:06.461Z,18.33
2023-02-06T20:54:11.556Z,19.10
2023-02-06T20:59:16.372Z,20.83
2023-02-06T21:04:19.619Z,20.58
2023-02-06T21:09:21.721Z,23.90
2023-02-06T21:14:25.531Z,23.02
2023-02-06T21:19:29.345Z,19.55
2023-02-06T21:24:31.627Z,20.38
2023-02-06T21:29:33.832Z,15.93
2023-02-06T21:34:35.926Z,16.77
2023-02-06T21:39:38.927Z,20.38
2023-02-06T21:44:41.077Z,20.23
2023-02-06T21:49:43.964Z,18.38
2023-02-06T21:54:45.948Z,16.30
2023-02-06T21:59:48.054Z,13.25
2023-02-06T22:04:50.203Z,14.25
2023-02-06T22:09:52.282Z,15.68
2023-02-06T22:14:54.443Z,18.73
2023-02-06T22:19:56.580Z,15.80
2023-02-06T22:24:58.709Z,20.48
2023-02-06T22:30:00.911Z,14.30
2023-02-06T22:35:03.644Z,14.40
2023-02-06T22:40:06.273Z,13.82
2023-02-06T22:45:09.137Z,13.00
2023-02-06T22:50:11.282Z,12.75
2023-02-06T22:55:13.338Z,11.32
2023-02-06T23:00:16.865Z,10.48
2023-02-06T23:05:18.998Z,12.57
2023-02-06T23:10:21.125Z,11.50
2023-02-06T23:15:23.769Z,14.07
2023-02-06T23:20:25.782Z,9.98
2023-02-06T23:25:27.805Z,9.90
2023-02-06T23:30:29.941Z,10.48
2023-02-06T23:35:36.767Z,12.68
2023-02-06T23:40:39.064Z,18.20
2023-02-06T23:45:41.899Z,8.45
2023-02-06T23:50:43.968Z,9.20
2023-02-06T23:55:46.055Z,9.93
